WetterOnline ( https://www.wetteronline.de )

Wetter aktuell Straubing

Aktuelles Wetter: Straubing (360m)

6-stündlich | Neueste Meldungen
Ortszeit Temperatur Wetter
So, 16.05. 2:00 9.0° C bedeckt
Sa, 15.05. 20:00 13.4° C bedeckt
Sa, 15.05. 14:00 14.4° C bewölkt
Sa, 15.05. 8:00 9.9° C leichter Regen
Sa, 15.05. 2:00 9.9° C bedeckt
Fr, 14.05. 20:00 16.5° C leicht bewölkt
Fr, 14.05. 14:00 15.3° C wolkig
Fr, 14.05. 8:00 10.0° C bedeckt
Ortszeit Temperatur Wetter
So, 16.05. 5:00 5.8° C leicht bewölkt
So, 16.05. 4:50 5.8° C leicht bewölkt
So, 16.05. 4:40 5.5° C leicht bewölkt
So, 16.05. 4:30 5.7° C wolkenlos
So, 16.05. 4:20 5.7° C wolkenlos
So, 16.05. 4:10 6.0° C wolkenlos
So, 16.05. 4:00 6.4° C fast wolkenlos
So, 16.05. 3:30 7.1° C bewölkt
So, 16.05. 3:00 8.3° C wolkig
So, 16.05. 2:30 8.6° C bedeckt
So, 16.05. 2:00 9.0° C bedeckt
Ortszeit Relative Feuchte Sichtweite
So, 16.05. 2:00 88% >70 km
Sa, 15.05. 20:00 73% >70 km
Sa, 15.05. 14:00 65% >70 km
Sa, 15.05. 8:00 91% 27 km
Sa, 15.05. 2:00 78% 65 km
Fr, 14.05. 20:00 47% 65 km
Fr, 14.05. 14:00 51% >70 km
Fr, 14.05. 8:00 84% >70 km
Ortszeit Relative Feuchte Sichtweite
So, 16.05. 5:00 99% 55 km
So, 16.05. 4:50 99% -
So, 16.05. 4:40 99% -
So, 16.05. 4:30 98% 55 km
So, 16.05. 4:20 98% -
So, 16.05. 4:10 97% -
So, 16.05. 4:00 96% 65 km
So, 16.05. 3:30 93% 65 km
So, 16.05. 3:00 90% >70 km
So, 16.05. 2:30 89% >70 km
So, 16.05. 2:00 88% >70 km
Ortszeit Niederschlagsmenge Niederschlagsart
So, 16.05. 2:00 2 l/m2 in 6 Std. Regen
Sa, 15.05. 20:00 2 l/m2 in 12 Std. Regen
Sa, 15.05. 14:00 1 l/m2 in 6 Std. Regen
Sa, 15.05. 8:00 0.8 l/m2 in 12 Std. Regen
Sa, 15.05. 2:00 0.0 l/m2 in 6 Std. -
Fr, 14.05. 20:00 0.0 l/m2 in 12 Std. -
Fr, 14.05. 14:00 0.0 l/m2 in 6 Std. -
Fr, 14.05. 8:00 4 l/m2 in 12 Std. Regen
Ortszeit Niederschlagsmenge Niederschlagsart
So, 16.05. 5:00 0.0 l/m2 in 1 Std. -
So, 16.05. 4:50 keine Meldung -
So, 16.05. 4:40 keine Meldung -
So, 16.05. 4:30 0.0 l/m2 in 1 Std. -
So, 16.05. 4:20 keine Meldung -
So, 16.05. 4:10 keine Meldung -
So, 16.05. 4:00 0.0 l/m2 in 1 Std. -
So, 16.05. 3:30 0.0 l/m2 in 1 Std. -
So, 16.05. 3:00 0.0 l/m2 in 1 Std. -
So, 16.05. 2:30 0.0 l/m2 in 1 Std. -
So, 16.05. 2:00 0.0 l/m2 in 1 Std. Regen
Ortszeit Stärke Spitze Richtung
km/h Bft. km/h Grad Sektor
So, 16.05. 2:00 4 1 43 250° W
Sa, 15.05. 20:00 7 2 29 120° SO
Sa, 15.05. 14:00 14 3 29 160° S
Sa, 15.05. 8:00 7 2 18 230° SW
Sa, 15.05. 2:00 6 1 19 280° W
Fr, 14.05. 20:00 4 1 22 270° W
Fr, 14.05. 14:00 11 2 25 270° W
Fr, 14.05. 8:00 11 2 22 260° W
Ortszeit Stärke Spitze Richtung
km/h Bft. km/h Grad Sektor
So, 16.05. 5:00 4 1 11 170° S
So, 16.05. 4:50 4 1 - 170° S
So, 16.05. 4:40 4 1 - 160° S
So, 16.05. 4:30 7 2 9 180° S
So, 16.05. 4:20 7 2 - 180° S
So, 16.05. 4:10 7 2 - 180° S
So, 16.05. 4:00 7 2 11 190° S
So, 16.05. 3:30 7 2 11 190° S
So, 16.05. 3:00 7 2 11 210° SW
So, 16.05. 2:30 6 1 7 230° SW
So, 16.05. 2:00 4 1 11 250° W
Ortszeit Untergrenze Bedeckung Gattung
total tief tief mittel hoch
So, 16.05. 2:00 450 m 8/8 8/8 - - -
Sa, 15.05. 20:00 4200 m 8/8 8/8 - - -
Sa, 15.05. 14:00 960 m 7/8 7/8 - - -
Sa, 15.05. 8:00 1050 m 8/8 8/8 - - -
Sa, 15.05. 2:00 3000 m 8/8 8/8 - - -
Fr, 14.05. 20:00 8100 m 5/8 0/8 - - -
Fr, 14.05. 14:00 2100 m 6/8 6/8 - - -
Fr, 14.05. 8:00 1050 m 8/8 8/8 - - -
Ortszeit Bedeckungsgrad in Achtel und Wolkenuntergrenze
So, 16.05. 5:00 3(1440m)
So, 16.05. 4:50 3(1440m)
So, 16.05. 4:40 2(1380m)
So, 16.05. 4:30 keine Wolken
So, 16.05. 4:20 keine Wolken
So, 16.05. 4:10 keine Wolken
So, 16.05. 4:00 1(720m)
So, 16.05. 3:30 4(720m) 7(3000m) 8(3900m)
So, 16.05. 3:00 2(1800m) 8(3000m) 8(4200m)
So, 16.05. 2:30 2(1500m) 8(2400m) 8(3300m)
So, 16.05. 2:00 1(450m) 8(1800m)
Ortszeit Luftdruck NN (hPa) Tendenz (hPa in 3 Std.)
So, 16.05. 2:00 1008 + 0,5
Sa, 15.05. 20:00 1005 - 1,2
Sa, 15.05. 14:00 1009 - 2,1
Sa, 15.05. 8:00 1012 + 1,0
Sa, 15.05. 2:00 1011 + 0,6
Fr, 14.05. 20:00 1008 + 0,1
Fr, 14.05. 14:00 1008 - 0,4
Fr, 14.05. 8:00 1009 + 0,7
Ortszeit Luftdruck NN (hPa) Tendenz (hPa in 3 Std.)
So, 16.05. 5:00 1009 + 0,4
So, 16.05. 4:50 1009 keine Meldung
So, 16.05. 4:40 1009 keine Meldung
So, 16.05. 4:30 1009 + 0,9
So, 16.05. 4:20 1009 keine Meldung
So, 16.05. 4:10 1009 keine Meldung
So, 16.05. 4:00 1009 + 0,7
So, 16.05. 3:30 1009 + 0,8
So, 16.05. 3:00 1008 + 0,6
So, 16.05. 2:30 1008 + 0,1
So, 16.05. 2:00 1008 + 0,5
Ortszeit Schneehöhe (cm)
So, 16.05. 2:00 0
Sa, 15.05. 20:00 0
Sa, 15.05. 14:00 0
Sa, 15.05. 8:00 0
Sa, 15.05. 2:00 0
Fr, 14.05. 20:00 0
Fr, 14.05. 14:00 0
Fr, 14.05. 8:00 0
Ortszeit Schneehöhe (cm)
So, 16.05. 5:00 0
So, 16.05. 4:50 0
So, 16.05. 4:40 0
So, 16.05. 4:30 0
So, 16.05. 4:20 0
So, 16.05. 4:10 0
So, 16.05. 4:00 0
So, 16.05. 3:30 0
So, 16.05. 3:00 0
So, 16.05. 2:30 0
So, 16.05. 2:00 0
Link zu dieser Seite / Seite empfehlen

Das Wetter in ...